Time;durP1;ratioP1;P1;durP2;ratioP2;P2;SDS_P1;SDS_P2;PMS_P1;PMS_P2;Temp;Humidity;BMP_temperature;BMP_pressure;BME280_temperature;BME280_humidity;BME280_pressure;Samples;Min_cycle;Max_cycle;Signal;HPM_P1;HPM_P2
2024/04/14 00:00:47;;;;;;;1.92;1.23;;;20.00;90.30;;;;;;5381827;26;20465;-42
2024/04/14 00:03:13;;;;;;;3.33;1.50;;;20.10;90.30;;;;;;5381936;26;19996;-42
2024/04/14 00:05:39;;;;;;;1.88;1.17;;;20.00;90.30;;;;;;5381825;26;19996;-41
2024/04/14 00:08:14;;;;;;;4.03;1.70;;;20.00;90.30;;;;;;5381646;26;20000;-41
2024/04/14 00:10:41;;;;;;;2.67;1.50;;;20.00;90.30;;;;;;5381558;26;20029;-40
2024/04/14 00:13:23;;;;;;;3.67;1.50;;;20.00;90.30;;;;;;5381628;26;20004;-44
2024/04/14 00:15:49;;;;;;;2.25;1.30;;;20.00;90.20;;;;;;5380179;26;20004;-44
2024/04/14 00:18:14;;;;;;;2.65;1.30;;;20.00;90.30;;;;;;5381562;26;20390;-47
2024/04/14 00:20:40;;;;;;;2.28;1.40;;;20.00;90.30;;;;;;5381333;26;20000;-45
2024/04/14 00:23:05;;;;;;;1.95;1.00;;;20.00;90.30;;;;;;5381643;26;20466;-43
2024/04/14 00:25:34;;;;;;;1.73;1.40;;;20.00;90.30;;;;;;5381631;26;20008;-43
2024/04/14 00:27:59;;;;;;;1.95;1.27;;;20.00;90.30;;;;;;5381338;26;20449;-41
2024/04/14 00:30:25;;;;;;;2.25;1.35;;;20.00;90.30;;;;;;5381738;26;20043;-40
2024/04/14 00:32:51;;;;;;;2.17;1.33;;;19.90;90.30;;;;;;5381739;26;20357;-44
2024/04/14 00:35:17;;;;;;;2.22;1.33;;;20.00;90.30;;;;;;5381359;26;20011;-40
2024/04/14 00:37:44;;;;;;;2.08;1.33;;;20.00;90.30;;;;;;5381415;26;19996;-43
2024/04/14 00:40:10;;;;;;;1.83;1.30;;;20.00;90.30;;;;;;5381210;26;20070;-45
2024/04/14 00:42:35;;;;;;;2.03;1.30;;;20.00;90.30;;;;;;5381320;26;20011;-41
2024/04/14 00:45:01;;;;;;;3.25;1.50;;;19.90;90.30;;;;;;5381301;26;19997;-41
2024/04/14 00:47:26;;;;;;;2.08;1.30;;;19.90;90.30;;;;;;5381088;26;20046;-45
2024/04/14 00:49:52;;;;;;;1.95;1.27;;;19.90;90.30;;;;;;5381065;26;20006;-40
2024/04/14 00:52:18;;;;;;;1.77;1.27;;;19.90;90.30;;;;;;5380989;26;19996;-42
2024/04/14 00:54:44;;;;;;;1.90;1.33;;;19.90;90.30;;;;;;5381267;26;20004;-44
2024/04/14 00:57:11;;;;;;;1.98;1.30;;;19.90;90.30;;;;;;5380187;26;19996;-43
2024/04/14 00:59:36;;;;;;;2.25;1.52;;;19.90;90.30;;;;;;5380948;26;20446;-41
2024/04/14 01:02:02;;;;;;;2.45;1.40;;;19.90;90.30;;;;;;5379362;26;20007;-44
2024/04/14 01:04:29;;;;;;;2.67;1.40;;;19.90;90.30;;;;;;5380910;26;20319;-42
2024/04/14 01:06:54;;;;;;;1.38;1.00;;;19.90;90.30;;;;;;5380966;26;19996;-44
2024/04/14 01:09:20;;;;;;;2.13;1.40;;;19.90;90.30;;;;;;5380858;26;20007;-44
2024/04/14 01:11:46;;;;;;;3.30;1.42;;;19.90;90.40;;;;;;5380900;26;19996;-41
2024/04/14 01:14:11;;;;;;;2.17;1.17;;;19.90;90.70;;;;;;5381032;26;20007;-42
2024/04/14 01:16:37;;;;;;;1.27;1.10;;;19.80;90.30;;;;;;5380793;26;20000;-43
2024/04/14 01:19:06;;;;;;;1.30;1.17;;;19.90;90.40;;;;;;5380502;26;20454;-41
2024/04/14 01:21:35;;;;;;;1.92;1.27;;;19.90;90.40;;;;;;5380708;26;20032;-43
2024/04/14 01:24:01;;;;;;;1.70;1.20;;;19.90;90.40;;;;;;5380846;26;19992;-44
2024/04/14 01:26:26;;;;;;;1.75;1.35;;;19.80;90.30;;;;;;5380734;26;19996;-42
2024/04/14 01:28:52;;;;;;;1.60;1.30;;;19.90;90.30;;;;;;5380887;26;20338;-40
2024/04/14 01:31:18;;;;;;;1.83;1.17;;;19.90;90.30;;;;;;5380425;26;20036;-43
2024/04/14 01:33:45;;;;;;;2.25;1.20;;;19.80;90.30;;;;;;5380584;26;20042;-45
2024/04/14 01:36:12;;;;;;;1.70;1.08;;;19.80;90.30;;;;;;5380497;26;20004;-41
2024/04/14 01:38:37;;;;;;;2.38;1.40;;;19.80;90.30;;;;;;5380501;26;20004;-47
2024/04/14 01:41:04;;;;;;;2.55;1.20;;;19.80;90.30;;;;;;5380236;26;20008;-44
2024/04/14 01:43:29;;;;;;;1.70;1.23;;;19.80;90.40;;;;;;5380574;26;20457;-41
2024/04/14 01:45:55;;;;;;;1.73;1.20;;;19.80;90.40;;;;;;5380649;26;19996;-41
2024/04/14 01:48:21;;;;;;;1.90;1.17;;;19.80;90.40;;;;;;5380296;26;20006;-44
2024/04/14 01:50:48;;;;;;;1.38;1.15;;;19.80;90.40;;;;;;5380242;26;20000;-45
2024/04/14 01:53:14;;;;;;;2.15;1.23;;;19.80;90.40;;;;;;5380228;26;20028;-41
2024/04/14 01:55:43;;;;;;;2.10;1.20;;;19.80;90.40;;;;;;5380229;26;20011;-41
2024/04/14 01:58:09;;;;;;;1.73;1.50;;;19.70;90.40;;;;;;5380207;26;20073;-41
2024/04/14 02:00:34;;;;;;;2.40;1.25;;;19.80;90.40;;;;;;5379984;26;20004;-40
2024/04/14 02:05:28;;;;;;;1.95;1.40;;;19.80;90.40;;;;;;5387036;26;20469;-39
2024/04/14 02:07:53;;;;;;;3.40;1.38;;;19.80;90.40;;;;;;5385484;26;19989;-39
2024/04/14 02:10:19;;;;;;;1.90;1.25;;;19.70;90.30;;;;;;5379739;26;19992;-39
2024/04/14 02:12:45;;;;;;;1.25;1.00;;;19.80;90.40;;;;;;5380044;26;19996;-39
2024/04/14 02:15:10;;;;;;;2.25;1.23;;;19.70;90.30;;;;;;5380071;26;20081;-39
2024/04/14 02:17:36;;;;;;;2.28;1.10;;;19.70;90.30;;;;;;5380189;26;20396;-39
2024/04/14 02:20:02;;;;;;;2.03;1.33;;;19.70;90.30;;;;;;5379960;26;20013;-39
2024/04/14 02:22:27;;;;;;;1.27;1.10;;;19.70;90.30;;;;;;5379877;26;20004;-39
2024/04/14 02:24:53;;;;;;;2.05;1.30;;;19.70;90.30;;;;;;5379844;26;19989;-39
2024/04/14 02:27:19;;;;;;;1.00;0.90;;;19.70;90.30;;;;;;5379801;26;20429;-39
2024/04/14 02:29:44;;;;;;;4.28;1.38;;;19.70;90.30;;;;;;5379690;26;20004;-39
2024/04/14 02:32:10;;;;;;;1.27;1.08;;;19.70;90.30;;;;;;5379535;26;20451;-40
2024/04/14 02:34:36;;;;;;;1.35;1.02;;;19.70;90.30;;;;;;5379730;26;20365;-39
2024/04/14 02:37:01;;;;;;;1.33;1.20;;;19.70;90.30;;;;;;5379708;26;20008;-39
2024/04/14 02:39:27;;;;;;;2.17;1.10;;;19.70;90.30;;;;;;5380045;26;20042;-39
2024/04/14 02:41:53;;;;;;;1.02;0.93;;;19.70;90.40;;;;;;5379620;26;20345;-39
2024/04/14 02:44:18;;;;;;;1.40;1.10;;;19.70;90.30;;;;;;5379497;26;19992;-39
2024/04/14 02:46:44;;;;;;;1.88;1.00;;;19.70;90.30;;;;;;5379634;26;20004;-39
2024/04/14 02:49:10;;;;;;;1.83;1.08;;;19.70;90.30;;;;;;5379326;26;19996;-39
2024/04/14 02:51:36;;;;;;;1.38;1.08;;;19.70;90.30;;;;;;5379174;26;20066;-39
2024/04/14 02:54:01;;;;;;;2.30;1.10;;;19.70;90.30;;;;;;5379229;26;20039;-40
2024/04/14 02:56:27;;;;;;;1.30;1.05;;;19.70;90.30;;;;;;5379183;26;20003;-39
2024/04/14 02:58:53;;;;;;;2.33;1.30;;;19.70;90.30;;;;;;5379155;26;19992;-39
2024/04/14 03:01:18;;;;;;;1.77;1.20;;;19.70;90.30;;;;;;5379241;26;20466;-39
2024/04/14 03:03:45;;;;;;;1.92;1.15;;;19.70;90.30;;;;;;5379075;26;20007;-39
2024/04/14 03:06:11;;;;;;;1.92;1.10;;;19.60;90.30;;;;;;5378862;26;20000;-39
2024/04/14 03:08:36;;;;;;;2.50;1.15;;;19.70;90.30;;;;;;5378924;26;20403;-39
2024/04/14 03:11:02;;;;;;;2.15;1.30;;;19.70;90.30;;;;;;5378830;26;20499;-39
2024/04/14 03:13:28;;;;;;;1.70;1.10;;;19.70;90.30;;;;;;5378960;26;20520;-39
2024/04/14 03:15:54;;;;;;;1.17;1.00;;;19.70;90.30;;;;;;5378951;26;20000;-39
2024/04/14 03:18:20;;;;;;;1.60;1.10;;;19.60;90.30;;;;;;5379070;26;19992;-39
2024/04/14 03:21:00;;;;;;;2.17;1.33;;;19.60;90.30;;;;;;5381297;26;20006;-39
2024/04/14 03:23:27;;;;;;;1.48;0.93;;;19.60;90.30;;;;;;5382143;26;20007;-39
2024/04/14 03:25:53;;;;;;;1.25;1.00;;;19.60;90.30;;;;;;5382563;26;20058;-39
2024/04/14 03:28:24;;;;;;;2.72;1.10;;;19.60;90.30;;;;;;5382313;26;20012;-39
2024/04/14 03:30:51;;;;;;;1.65;1.05;;;19.60;90.30;;;;;;5351264;26;20472;-39
2024/04/14 03:33:17;;;;;;;1.30;0.90;;;19.60;90.30;;;;;;5382227;26;20000;-39
2024/04/14 03:35:42;;;;;;;2.63;1.42;;;19.60;90.30;;;;;;5382190;26;20461;-39
2024/04/14 03:38:08;;;;;;;1.65;1.00;;;19.60;90.30;;;;;;5381999;26;20012;-40
2024/04/14 03:40:34;;;;;;;1.42;1.00;;;19.60;90.40;;;;;;5382290;26;19996;-38
2024/04/14 03:42:59;;;;;;;2.97;1.17;;;19.60;90.40;;;;;;5382356;26;19996;-39
2024/04/14 03:45:25;;;;;;;2.67;1.20;;;19.60;90.40;;;;;;5382196;26;20008;-39
2024/04/14 03:47:54;;;;;;;1.55;0.90;;;19.60;90.40;;;;;;5381988;26;20011;-39
2024/04/14 03:50:20;;;;;;;1.85;1.20;;;19.60;90.40;;;;;;5382316;26;20036;-39
2024/04/14 03:52:45;;;;;;;2.88;1.23;;;19.50;90.30;;;;;;5381941;26;20000;-39
2024/04/14 03:55:11;;;;;;;1.45;1.10;;;19.50;90.30;;;;;;5382021;26;20011;-39
2024/04/14 03:57:36;;;;;;;1.77;1.10;;;19.60;90.40;;;;;;5381870;26;19996;-39
2024/04/14 04:00:03;;;;;;;2.08;1.30;;;19.60;90.40;;;;;;5381921;26;20394;-39
2024/04/14 04:02:29;;;;;;;2.42;1.17;;;19.50;90.30;;;;;;5381882;26;20011;-39
2024/04/14 04:04:55;;;;;;;1.98;1.27;;;19.50;90.30;;;;;;5381850;26;19996;-39
2024/04/14 04:07:20;;;;;;;1.27;0.88;;;19.50;90.30;;;;;;5381865;26;20437;-39
2024/04/14 04:09:46;;;;;;;1.88;1.15;;;19.50;90.30;;;;;;5382355;26;20004;-39
2024/04/14 04:12:11;;;;;;;2.15;1.27;;;19.50;90.30;;;;;;5381874;26;20069;-39
2024/04/14 04:14:37;;;;;;;1.40;1.10;;;19.50;90.30;;;;;;5381801;26;20457;-39
2024/04/14 04:17:03;;;;;;;1.33;1.10;;;19.60;90.30;;;;;;5381570;26;20000;-40
2024/04/14 04:19:28;;;;;;;1.98;1.23;;;19.50;90.30;;;;;;5381706;26;20449;-39
2024/04/14 04:21:54;;;;;;;1.50;0.90;;;19.50;90.30;;;;;;5381647;26;19996;-39
2024/04/14 04:24:20;;;;;;;1.70;1.30;;;19.50;90.30;;;;;;5381672;26;19997;-39
2024/04/14 04:26:45;;;;;;;1.73;1.08;;;19.50;90.30;;;;;;5381743;26;20467;-40
2024/04/14 04:29:11;;;;;;;1.52;1.00;;;19.50;90.30;;;;;;5381452;26;20069;-40
2024/04/14 04:31:37;;;;;;;1.45;1.00;;;19.50;90.30;;;;;;5380085;26;20083;-38
2024/04/14 04:34:02;;;;;;;2.03;1.17;;;19.50;90.30;;;;;;5381426;26;20011;-39
2024/04/14 04:36:28;;;;;;;1.95;1.10;;;19.50;90.30;;;;;;5381476;26;20074;-39
2024/04/14 04:39:01;;;;;;;1.85;1.20;;;19.50;90.30;;;;;;5381294;26;20008;-39
2024/04/14 04:41:26;;;;;;;1.75;1.00;;;19.50;90.30;;;;;;5381613;26;19996;-39
2024/04/14 04:43:52;;;;;;;1.33;1.00;;;19.50;90.30;;;;;;5381278;26;20015;-39
2024/04/14 04:46:18;;;;;;;3.60;1.10;;;19.50;90.30;;;;;;5381408;26;20006;-39
2024/04/14 04:48:43;;;;;;;3.33;1.30;;;19.50;90.30;;;;;;5381208;26;20095;-39
2024/04/14 04:51:09;;;;;;;1.70;1.17;;;19.40;90.30;;;;;;5381499;26;20004;-39
2024/04/14 04:53:35;;;;;;;1.83;0.88;;;19.40;90.30;;;;;;5350480;26;20000;-39
2024/04/14 04:56:00;;;;;;;2.28;1.42;;;19.40;90.30;;;;;;5381166;26;20011;-39
2024/04/14 04:58:26;;;;;;;2.38;1.00;;;19.40;90.30;;;;;;5381112;26;20000;-39
2024/04/14 05:00:58;;;;;;;1.30;0.85;;;19.40;90.30;;;;;;5380981;26;20040;-39
2024/04/14 05:03:24;;;;;;;1.55;0.90;;;19.40;90.30;;;;;;5350080;26;20473;-39
2024/04/14 05:05:57;;;;;;;2.10;1.05;;;19.40;90.30;;;;;;5381398;26;20028;-39
2024/04/14 05:08:23;;;;;;;1.00;0.82;;;19.40;90.30;;;;;;5380858;26;20070;-39
2024/04/14 05:10:51;;;;;;;1.30;0.80;;;19.40;90.30;;;;;;5380894;26;20004;-39
2024/04/14 05:13:17;;;;;;;2.22;1.17;;;19.40;90.30;;;;;;5380790;26;20363;-39
2024/04/14 05:15:42;;;;;;;1.50;0.98;;;19.40;90.30;;;;;;5381106;26;20007;-40
2024/04/14 05:18:08;;;;;;;1.85;1.13;;;19.40;90.30;;;;;;5380845;26;20000;-39
2024/04/14 05:20:34;;;;;;;1.98;1.00;;;19.40;90.30;;;;;;5380706;26;19996;-40
2024/04/14 05:23:00;;;;;;;2.22;0.98;;;19.40;90.30;;;;;;5380869;26;20011;-39
2024/04/14 05:25:25;;;;;;;1.30;0.90;;;19.40;90.30;;;;;;5380854;26;19996;-39
2024/04/14 05:27:51;;;;;;;1.70;1.20;;;19.40;90.30;;;;;;5380506;26;20015;-40
2024/04/14 05:30:17;;;;;;;1.65;0.90;;;19.30;90.30;;;;;;5380554;26;20000;-40
2024/04/14 05:32:42;;;;;;;1.60;1.20;;;19.30;90.30;;;;;;5380617;26;20203;-39
2024/04/14 05:35:08;;;;;;;1.48;1.02;;;19.30;90.40;;;;;;5380718;26;20006;-39
2024/04/14 05:37:33;;;;;;;1.52;1.15;;;19.30;90.40;;;;;;5380588;26;20011;-39
2024/04/14 05:39:59;;;;;;;2.40;1.10;;;19.30;90.40;;;;;;5380534;26;20069;-39
2024/04/14 05:42:25;;;;;;;1.67;1.20;;;19.30;90.40;;;;;;5380056;26;20495;-40
2024/04/14 05:44:50;;;;;;;1.40;1.00;;;19.30;90.40;;;;;;5381022;26;20456;-39
2024/04/14 05:47:16;;;;;;;1.70;0.90;;;19.30;90.40;;;;;;5380652;26;20422;-39
2024/04/14 05:49:42;;;;;;;1.65;1.10;;;19.20;90.40;;;;;;5380331;26;20006;-39
2024/04/14 05:52:08;;;;;;;1.50;1.10;;;19.20;90.40;;;;;;5380077;26;19996;-39
2024/04/14 05:54:34;;;;;;;1.52;1.00;;;19.20;90.50;;;;;;5380345;26;20337;-39
2024/04/14 05:56:59;;;;;;;1.98;1.10;;;19.20;90.50;;;;;;5380127;26;19996;-39
2024/04/14 05:59:25;;;;;;;1.77;1.00;;;19.20;90.50;;;;;;5380134;26;20066;-40
2024/04/14 06:01:50;;;;;;;3.03;1.23;;;19.20;90.50;;;;;;5380126;26;19992;-39
2024/04/14 06:04:16;;;;;;;1.58;1.33;;;19.20;90.50;;;;;;5380126;26;20000;-39
2024/04/14 06:06:42;;;;;;;0.93;0.75;;;19.20;90.50;;;;;;5349101;26;20390;-39
2024/04/14 06:09:07;;;;;;;1.42;0.90;;;19.20;90.50;;;;;;5380122;26;20004;-40
2024/04/14 06:11:33;;;;;;;1.75;1.25;;;19.20;90.50;;;;;;5380032;26;20001;-39
2024/04/14 06:13:59;;;;;;;2.30;1.05;;;19.20;90.50;;;;;;5379971;26;20007;-39
2024/04/14 06:16:25;;;;;;;1.48;1.20;;;19.20;90.50;;;;;;5380040;26;19996;-39
2024/04/14 06:18:50;;;;;;;1.63;0.90;;;19.20;90.50;;;;;;5379945;26;20474;-39
2024/04/14 06:21:16;;;;;;;2.15;1.13;;;19.30;90.50;;;;;;5379631;26;19997;-39
2024/04/14 06:23:42;;;;;;;1.38;1.10;;;19.30;90.50;;;;;;5379877;26;20073;-39
2024/04/14 06:26:07;;;;;;;1.70;1.17;;;19.30;90.50;;;;;;5379937;26;20000;-39
2024/04/14 06:28:36;;;;;;;1.60;1.00;;;19.30;90.50;;;;;;5379806;26;20000;-39
2024/04/14 06:31:02;;;;;;;1.67;1.00;;;19.30;90.50;;;;;;5380268;26;20012;-38
2024/04/14 06:33:27;;;;;;;2.05;1.15;;;19.20;90.50;;;;;;5379652;26;20028;-39
2024/04/14 06:35:54;;;;;;;1.52;0.98;;;19.30;90.60;;;;;;5379988;26;20388;-39
2024/04/14 06:38:20;;;;;;;3.13;1.42;;;19.30;90.60;;;;;;5379581;26;20007;-40
2024/04/14 06:40:47;;;;;;;1.60;1.00;;;19.30;90.60;;;;;;5379707;26;20342;-39
2024/04/14 06:43:12;;;;;;;1.63;1.08;;;19.30;90.90;;;;;;5380558;26;19996;-39
2024/04/14 06:45:39;;;;;;;1.38;1.15;;;19.30;90.50;;;;;;5381023;26;20004;-39
2024/04/14 06:48:05;;;;;;;1.45;1.00;;;19.30;90.50;;;;;;5348846;26;20053;-40
2024/04/14 06:50:30;;;;;;;1.75;1.30;;;19.30;90.50;;;;;;5379315;26;20000;-40
2024/04/14 06:52:56;;;;;;;1.83;1.13;;;19.30;90.90;;;;;;5379488;26;20008;-39
2024/04/14 06:55:22;;;;;;;1.90;1.10;;;19.30;90.50;;;;;;5381454;26;19996;-39
2024/04/14 06:57:47;;;;;;;1.48;1.05;;;19.30;90.50;;;;;;5382882;26;20020;-39
2024/04/14 07:00:13;;;;;;;1.25;0.93;;;19.30;90.50;;;;;;5382699;26;20047;-39
2024/04/14 07:02:39;;;;;;;2.65;1.05;;;19.30;90.50;;;;;;5382709;26;20000;-40
2024/04/14 07:05:04;;;;;;;1.55;1.10;;;19.40;90.50;;;;;;5382799;26;19996;-38
2024/04/14 07:07:30;;;;;;;1.52;1.15;;;19.40;90.50;;;;;;5382549;26;20406;-39
2024/04/14 07:09:56;;;;;;;2.35;1.20;;;19.40;90.40;;;;;;5383279;26;20345;-39
2024/04/14 07:12:22;;;;;;;1.40;1.20;;;19.40;90.40;;;;;;5351607;26;20011;-39
2024/04/14 07:14:47;;;;;;;1.20;1.00;;;19.40;90.40;;;;;;5382702;26;20403;-39
2024/04/14 07:17:13;;;;;;;1.15;0.95;;;19.40;90.40;;;;;;5382807;26;20337;-39
2024/04/14 07:19:40;;;;;;;2.78;1.05;;;19.40;90.40;;;;;;5382581;26;20036;-39
2024/04/14 07:22:05;;;;;;;2.13;1.10;;;19.50;90.40;;;;;;5382468;26;19997;-39
2024/04/14 07:24:31;;;;;;;1.05;0.90;;;19.50;90.40;;;;;;5382510;26;20076;-40
2024/04/14 07:26:57;;;;;;;1.40;1.10;;;19.50;90.30;;;;;;5382818;26;20008;-39
2024/04/14 07:29:22;;;;;;;1.52;1.00;;;19.50;90.30;;;;;;5382313;26;20000;-39
2024/04/14 07:31:49;;;;;;;0.98;0.88;;;19.50;90.30;;;;;;5382257;26;20438;-39
2024/04/14 07:34:14;;;;;;;1.73;1.13;;;19.60;90.30;;;;;;5382158;26;20010;-39
2024/04/14 07:36:40;;;;;;;1.45;1.10;;;19.60;90.30;;;;;;5382303;26;20000;-39
2024/04/14 07:39:05;;;;;;;2.05;1.27;;;19.60;90.30;;;;;;5382329;26;20012;-40
2024/04/14 07:41:31;;;;;;;1.42;1.02;;;19.60;90.20;;;;;;5382270;26;20000;-39
2024/04/14 07:43:57;;;;;;;1.33;0.88;;;19.60;90.20;;;;;;5382307;26;20011;-39
2024/04/14 07:46:26;;;;;;;1.83;1.10;;;19.60;90.20;;;;;;5382119;26;20024;-39
2024/04/14 07:48:52;;;;;;;1.25;1.00;;;19.70;90.10;;;;;;5382186;26;20007;-41
2024/04/14 07:51:17;;;;;;;1.48;0.90;;;19.70;90.10;;;;;;5382569;26;20004;-39
2024/04/14 07:53:43;;;;;;;1.35;1.00;;;19.80;90.10;;;;;;5382465;26;20330;-39
2024/04/14 07:56:08;;;;;;;2.08;1.15;;;19.80;90.10;;;;;;5383391;26;20004;-39
2024/04/14 07:58:34;;;;;;;1.30;0.90;;;19.80;90.10;;;;;;5385168;26;20000;-39
2024/04/14 08:01:02;;;;;;;1.02;0.93;;;19.80;90.00;;;;;;5385368;26;20000;-40
2024/04/14 08:03:27;;;;;;;1.42;0.90;;;19.80;90.00;;;;;;5405098;21;19984;-42
2024/04/14 08:05:53;;;;;;;2.60;0.85;;;19.80;90.00;;;;;;5452725;26;19998;-41
2024/04/14 08:08:19;;;;;;;1.20;0.93;;;19.90;90.00;;;;;;5452908;26;19998;-42
2024/04/14 08:10:44;;;;;;;1.70;1.00;;;19.90;89.90;;;;;;5453149;26;20455;-42
2024/04/14 08:13:10;;;;;;;1.60;1.08;;;20.00;89.90;;;;;;5453158;26;19995;-41
2024/04/14 08:15:35;;;;;;;3.35;0.85;;;19.90;89.90;;;;;;5453207;26;20071;-40
2024/04/14 08:18:02;;;;;;;1.45;0.82;;;20.00;89.90;;;;;;5452981;26;20011;-42
2024/04/14 08:20:27;;;;;;;1.02;0.90;;;20.00;89.80;;;;;;5453191;26;19995;-41
2024/04/14 08:22:53;;;;;;;1.27;0.80;;;20.10;89.80;;;;;;5453099;26;19995;-41
2024/04/14 08:25:19;;;;;;;1.52;1.10;;;20.10;89.80;;;;;;5453146;26;20067;-41
2024/04/14 08:27:44;;;;;;;1.55;0.90;;;20.10;89.70;;;;;;5452921;26;20005;-44
2024/04/14 08:30:10;;;;;;;1.10;1.00;;;20.10;89.60;;;;;;5453270;26;20307;-42
2024/04/14 08:32:36;;;;;;;1.75;0.93;;;20.20;89.60;;;;;;5452684;26;19995;-41
2024/04/14 08:35:02;;;;;;;1.77;0.95;;;20.20;89.50;;;;;;5452831;26;19999;-41
2024/04/14 08:37:28;;;;;;;1.77;0.70;;;20.20;89.50;;;;;;5452925;26;20339;-40
2024/04/14 08:39:54;;;;;;;2.20;1.00;;;20.20;89.50;;;;;;5453030;26;20009;-40
2024/04/14 08:42:21;;;;;;;1.50;1.00;;;20.30;89.40;;;;;;5452782;26;19999;-40
2024/04/14 08:44:48;;;;;;;1.17;0.80;;;20.30;89.40;;;;;;5452878;26;20520;-41
2024/04/14 08:47:17;;;;;;;1.67;0.93;;;20.30;90.00;;;;;;5452824;26;19998;-42
2024/04/14 08:49:43;;;;;;;1.73;0.90;;;20.30;89.20;;;;;;5452735;26;20095;-42
2024/04/14 08:52:11;;;;;;;1.10;1.00;;;20.40;89.20;;;;;;5452619;26;19998;-40
2024/04/14 08:54:38;;;;;;;1.65;0.95;;;20.40;89.10;;;;;;5452705;26;20044;-42
2024/04/14 08:57:05;;;;;;;1.23;1.02;;;20.40;89.00;;;;;;5452628;26;19999;-41
2024/04/14 08:59:31;;;;;;;1.20;0.90;;;20.50;88.90;;;;;;5452601;26;20005;-42
2024/04/14 09:01:57;;;;;;;1.48;0.90;;;20.50;88.80;;;;;;5452327;26;20043;-41
2024/04/14 09:04:23;;;;;;;0.90;0.70;;;20.60;88.80;;;;;;5452376;26;20006;-42
2024/04/14 09:06:49;;;;;;;1.40;1.00;;;20.60;88.70;;;;;;5452231;26;19999;-41
2024/04/14 09:09:15;;;;;;;1.77;0.95;;;20.70;88.60;;;;;;5452417;26;19995;-42
2024/04/14 09:11:55;;;;;;;1.55;0.82;;;20.70;88.60;;;;;;5452372;26;20005;-42
2024/04/14 09:14:22;;;;;;;1.08;0.80;;;20.70;88.50;;;;;;5452585;26;19998;-40
2024/04/14 09:16:51;;;;;;;1.10;0.80;;;20.80;88.50;;;;;;5452090;26;20006;-41
2024/04/14 09:19:18;;;;;;;1.15;0.98;;;20.80;88.40;;;;;;5451714;26;19995;-41
2024/04/14 09:21:44;;;;;;;1.20;0.90;;;20.80;88.30;;;;;;5452197;26;20363;-40
2024/04/14 09:24:10;;;;;;;1.65;0.90;;;20.90;88.30;;;;;;5452193;26;20068;-42
2024/04/14 09:26:36;;;;;;;1.10;0.80;;;20.90;88.20;;;;;;5450456;26;20006;-41
2024/04/14 09:29:03;;;;;;;1.90;0.75;;;20.90;88.10;;;;;;5452149;26;19994;-41
2024/04/14 09:31:29;;;;;;;1.08;0.80;;;21.00;88.00;;;;;;5451848;26;20367;-42
2024/04/14 09:33:55;;;;;;;1.95;0.88;;;21.00;87.90;;;;;;5452114;26;19995;-42
2024/04/14 09:36:25;;;;;;;1.42;0.80;;;21.10;87.90;;;;;;5452093;26;19998;-42
2024/04/14 09:38:54;;;;;;;1.25;0.80;;;21.20;87.80;;;;;;5451906;26;20006;-43
2024/04/14 09:41:23;;;;;;;1.40;0.80;;;21.20;87.70;;;;;;5451880;26;20443;-41
2024/04/14 09:43:53;;;;;;;1.20;0.80;;;21.20;87.60;;;;;;5451913;26;20336;-44
2024/04/14 09:46:20;;;;;;;1.17;0.80;;;21.30;88.30;;;;;;5451834;26;20324;-42
2024/04/14 09:48:47;;;;;;;1.15;0.73;;;21.30;88.20;;;;;;5451774;26;19994;-41
2024/04/14 09:51:17;;;;;;;1.35;0.70;;;21.30;87.40;;;;;;5451733;26;20375;-41
2024/04/14 09:53:44;;;;;;;2.10;0.80;;;21.40;87.40;;;;;;5451720;26;19994;-41
2024/04/14 09:56:10;;;;;;;1.10;0.73;;;21.40;88.00;;;;;;5451804;26;20041;-41
2024/04/14 09:58:36;;;;;;;1.58;1.10;;;21.40;87.10;;;;;;5451599;26;19999;-42
2024/04/14 10:01:10;;;;;;;1.58;0.88;;;21.50;87.10;;;;;;5452009;26;20007;-41
2024/04/14 10:03:36;;;;;;;1.17;0.60;;;21.50;87.00;;;;;;5451513;26;20443;-44
2024/04/14 10:06:04;;;;;;;1.70;0.88;;;21.60;87.00;;;;;;5451639;26;19995;-43
2024/04/14 10:08:32;;;;;;;0.90;0.70;;;21.60;86.90;;;;;;5451539;26;20031;-42
2024/04/14 10:10:57;;;;;;;1.77;0.90;;;21.60;86.80;;;;;;5451547;26;19998;-42
2024/04/14 10:13:23;;;;;;;1.27;0.70;;;21.70;86.80;;;;;;5451204;26;20343;-42
2024/04/14 10:15:57;;;;;;;0.82;0.70;;;21.70;86.70;;;;;;5451670;26;19998;-42
2024/04/14 10:18:25;;;;;;;1.50;0.80;;;21.70;86.50;;;;;;5451640;26;20035;-44
2024/04/14 10:20:51;;;;;;;1.20;0.95;;;21.80;86.50;;;;;;5451259;26;20447;-41
2024/04/14 10:23:18;;;;;;;1.23;0.60;;;21.80;86.40;;;;;;5451246;26;19995;-42
2024/04/14 10:25:48;;;;;;;0.88;0.73;;;21.80;86.40;;;;;;5451342;26;19991;-45
2024/04/14 10:28:22;;;;;;;1.05;0.75;;;21.90;86.30;;;;;;5451374;26;20013;-43
2024/04/14 10:30:59;;;;;;;1.17;0.80;;;21.90;86.20;;;;;;5453532;26;20030;-42
2024/04/14 10:33:25;;;;;;;0.90;0.70;;;21.90;86.10;;;;;;5454744;26;20444;-42
2024/04/14 10:36:03;;;;;;;0.90;0.70;;;22.00;86.10;;;;;;5454774;26;20039;-41
2024/04/14 10:38:31;;;;;;;1.02;0.77;;;22.00;86.00;;;;;;5454428;26;19995;-42
2024/04/14 10:40:58;;;;;;;3.05;0.80;;;22.00;86.70;;;;;;5454583;26;19999;-42
2024/04/14 10:43:27;;;;;;;0.95;0.80;;;22.00;85.80;;;;;;5454497;26;19995;-41
2024/04/14 10:45:53;;;;;;;1.00;0.80;;;22.10;85.80;;;;;;5454624;26;19994;-42
2024/04/14 10:48:20;;;;;;;1.20;0.77;;;22.10;85.80;;;;;;5454664;26;20009;-42
2024/04/14 10:50:46;;;;;;;1.20;0.73;;;22.10;85.80;;;;;;5454507;26;19991;-42
2024/04/14 10:53:11;;;;;;;0.95;0.70;;;22.20;85.80;;;;;;5454323;26;20005;-41
2024/04/14 10:55:38;;;;;;;1.42;0.80;;;22.20;85.70;;;;;;5454440;26;20038;-42
2024/04/14 10:58:04;;;;;;;1.50;0.90;;;22.20;85.60;;;;;;5454146;26;20002;-42
2024/04/14 11:00:30;;;;;;;1.08;0.80;;;22.20;85.60;;;;;;5454226;26;19994;-41
2024/04/14 11:02:58;;;;;;;0.95;0.75;;;22.20;85.60;;;;;;5454628;26;20389;-41
2024/04/14 11:05:25;;;;;;;1.20;0.70;;;22.20;85.60;;;;;;5454146;26;20321;-41
2024/04/14 11:07:52;;;;;;;2.40;0.88;;;22.10;85.60;;;;;;5454126;26;20071;-41
2024/04/14 11:10:20;;;;;;;1.02;0.75;;;22.10;85.70;;;;;;5454092;26;19998;-43
2024/04/14 11:12:47;;;;;;;1.10;0.70;;;22.10;85.70;;;;;;5454077;26;20032;-42
2024/04/14 11:15:13;;;;;;;0.88;0.70;;;22.10;85.80;;;;;;5454118;26;20067;-41
2024/04/14 11:17:41;;;;;;;2.45;0.77;;;22.10;85.80;;;;;;5453975;26;20006;-42
2024/04/14 11:20:11;;;;;;;1.00;0.80;;;22.10;85.80;;;;;;5454189;26;19995;-42
2024/04/14 11:22:37;;;;;;;3.35;0.70;;;22.10;85.80;;;;;;5454374;26;20432;-42
2024/04/14 11:25:03;;;;;;;1.02;0.80;;;22.10;85.80;;;;;;5453791;26;19991;-43
2024/04/14 11:27:28;;;;;;;1.60;0.82;;;22.10;85.80;;;;;;5453739;26;19996;-41
2024/04/14 11:29:54;;;;;;;1.80;0.90;;;22.10;85.80;;;;;;5454286;26;20005;-42
2024/04/14 11:32:35;;;;;;;1.83;0.63;;;22.20;85.80;;;;;;5453646;26;20333;-42
2024/04/14 11:35:01;;;;;;;1.70;1.10;;;22.10;85.80;;;;;;5453770;26;20006;-40
2024/04/14 11:37:29;;;;;;;1.10;0.85;;;22.10;85.90;;;;;;5453671;26;19998;-44
2024/04/14 11:39:56;;;;;;;0.88;0.60;;;22.10;85.90;;;;;;5453579;26;20463;-42
2024/04/14 11:42:22;;;;;;;1.98;0.80;;;22.10;85.90;;;;;;5453337;26;20023;-41
2024/04/14 11:44:48;;;;;;;2.35;0.80;;;22.10;85.90;;;;;;5453631;26;19995;-41
2024/04/14 11:47:13;;;;;;;1.60;0.70;;;22.10;85.90;;;;;;5453619;26;20006;-42
2024/04/14 11:49:39;;;;;;;2.05;0.90;;;22.20;86.00;;;;;;5453815;26;19999;-43
2024/04/14 11:52:04;;;;;;;1.23;0.80;;;22.10;85.90;;;;;;5453895;26;20354;-41
2024/04/14 11:54:30;;;;;;;1.00;0.70;;;22.20;86.00;;;;;;5453720;26;20007;-44
2024/04/14 11:56:56;;;;;;;1.00;0.70;;;22.20;86.00;;;;;;5453418;26;20368;-44
2024/04/14 11:59:21;;;;;;;1.83;0.80;;;22.20;86.00;;;;;;5453450;26;20005;-42
2024/04/14 12:01:47;;;;;;;1.48;0.95;;;22.20;85.90;;;;;;5453348;26;19995;-42
2024/04/14 12:04:12;;;;;;;1.02;0.80;;;22.20;85.90;;;;;;5453258;26;19999;-42
2024/04/14 12:06:38;;;;;;;1.58;0.75;;;22.20;85.90;;;;;;5453538;26;20014;-42
2024/04/14 12:09:04;;;;;;;2.03;0.85;;;22.30;85.90;;;;;;5453208;26;19999;-41
2024/04/14 12:11:29;;;;;;;1.50;0.80;;;22.30;85.80;;;;;;5453406;26;19994;-40
2024/04/14 12:13:55;;;;;;;2.03;0.90;;;22.30;85.80;;;;;;5453304;26;19994;-41
2024/04/14 12:16:21;;;;;;;2.35;0.68;;;22.30;85.80;;;;;;5452924;26;19991;-44
2024/04/14 12:18:47;;;;;;;1.58;0.82;;;22.30;85.80;;;;;;5453261;26;19994;-42
2024/04/14 12:21:12;;;;;;;2.28;0.93;;;22.40;85.70;;;;;;5453100;26;20406;-41
2024/04/14 12:23:38;;;;;;;1.70;0.88;;;22.40;85.70;;;;;;5453112;26;20339;-43
2024/04/14 12:26:03;;;;;;;1.27;0.82;;;22.40;85.80;;;;;;5453262;26;20021;-42
2024/04/14 12:28:29;;;;;;;1.75;0.80;;;22.40;85.80;;;;;;5452986;26;19999;-41
2024/04/14 12:30:55;;;;;;;1.30;0.80;;;22.40;85.70;;;;;;5452791;26;20068;-43
2024/04/14 12:33:20;;;;;;;1.73;0.88;;;22.40;85.80;;;;;;5452820;26;20006;-42
2024/04/14 12:35:46;;;;;;;1.13;0.80;;;22.40;85.80;;;;;;5453133;26;20005;-41
2024/04/14 12:38:11;;;;;;;1.30;0.93;;;22.40;85.80;;;;;;5452728;26;20005;-41
2024/04/14 12:40:37;;;;;;;2.95;0.88;;;22.40;85.70;;;;;;5452770;26;20072;-43
2024/04/14 12:43:03;;;;;;;0.52;0.40;;;22.40;85.70;;;;;;5452847;26;19991;-42
2024/04/14 12:45:28;;;;;;;1.85;0.88;;;22.50;85.80;;;;;;5452564;26;20091;-42